sensor_id;sensor_type;location;lat;lon;timestamp;pressure;altitude;pressure_sealevel;temperature;humidity
60609;BME280;48221;53.528;9.884;2023-02-11T00:00:05;102787.16;;;5.30;100.00
60609;BME280;48221;53.528;9.884;2023-02-11T00:02:31;102785.34;;;5.28;100.00
60609;BME280;48221;53.528;9.884;2023-02-11T00:04:57;102777.34;;;5.25;100.00
60609;BME280;48221;53.528;9.884;2023-02-11T00:07:22;102787.94;;;5.28;100.00
60609;BME280;48221;53.528;9.884;2023-02-11T00:09:48;102780.16;;;5.28;100.00
60609;BME280;48221;53.528;9.884;2023-02-11T00:12:13;102786.25;;;5.29;100.00
60609;BME280;48221;53.528;9.884;2023-02-11T00:14:39;102778.47;;;5.29;100.00
60609;BME280;48221;53.528;9.884;2023-02-11T00:17:05;102770.94;;;5.32;100.00
60609;BME280;48221;53.528;9.884;2023-02-11T00:19:30;102767.59;;;5.33;100.00
60609;BME280;48221;53.528;9.884;2023-02-11T00:21:55;102748.44;;;5.31;100.00
60609;BME280;48221;53.528;9.884;2023-02-11T00:24:21;102747.53;;;5.31;100.00
60609;BME280;48221;53.528;9.884;2023-02-11T00:26:46;102757.25;;;5.33;100.00
60609;BME280;48221;53.528;9.884;2023-02-11T00:29:11;102749.59;;;5.35;100.00
60609;BME280;48221;53.528;9.884;2023-02-11T00:31:36;102752.19;;;5.35;100.00
60609;BME280;48221;53.528;9.884;2023-02-11T00:34:02;102747.91;;;5.35;100.00
60609;BME280;48221;53.528;9.884;2023-02-11T00:36:27;102751.28;;;5.34;100.00
60609;BME280;48221;53.528;9.884;2023-02-11T00:38:54;102746.09;;;5.34;100.00
60609;BME280;48221;53.528;9.884;2023-02-11T00:41:21;102748.91;;;5.37;100.00
60609;BME280;48221;53.528;9.884;2023-02-11T00:43:47;102742.97;;;5.38;100.00
60609;BME280;48221;53.528;9.884;2023-02-11T00:46:13;102736.75;;;5.36;100.00
60609;BME280;48221;53.528;9.884;2023-02-11T00:48:40;102748.91;;;5.37;100.00
60609;BME280;48221;53.528;9.884;2023-02-11T00:51:06;102740.38;;;5.38;100.00
60609;BME280;48221;53.528;9.884;2023-02-11T00:53:31;102732.25;;;5.34;100.00
60609;BME280;48221;53.528;9.884;2023-02-11T00:55:57;102727.19;;;5.35;100.00
60609;BME280;48221;53.528;9.884;2023-02-11T00:58:22;102726.53;;;5.38;100.00
60609;BME280;48221;53.528;9.884;2023-02-11T01:00:48;102731.13;;;5.42;100.00
60609;BME280;48221;53.528;9.884;2023-02-11T01:03:13;102726.63;;;5.39;100.00
60609;BME280;48221;53.528;9.884;2023-02-11T01:05:39;102724.50;;;5.34;100.00
60609;BME280;48221;53.528;9.884;2023-02-11T01:08:04;102724.16;;;5.41;100.00
60609;BME280;48221;53.528;9.884;2023-02-11T01:10:30;102727.66;;;5.41;100.00
60609;BME280;48221;53.528;9.884;2023-02-11T01:12:56;102728.44;;;5.40;100.00
60609;BME280;48221;53.528;9.884;2023-02-11T01:15:21;102723.47;;;5.43;100.00
60609;BME280;48221;53.528;9.884;2023-02-11T01:17:46;102722.72;;;5.44;100.00
60609;BME280;48221;53.528;9.884;2023-02-11T01:20:21;102718.56;;;5.46;100.00
60609;BME280;48221;53.528;9.884;2023-02-11T01:22:47;102721.03;;;5.45;100.00
60609;BME280;48221;53.528;9.884;2023-02-11T01:25:12;102721.03;;;5.45;100.00
60609;BME280;48221;53.528;9.884;2023-02-11T01:27:38;102719.34;;;5.45;100.00
60609;BME280;48221;53.528;9.884;2023-02-11T01:30:05;102723.75;;;5.46;100.00
60609;BME280;48221;53.528;9.884;2023-02-11T01:32:32;102711.81;;;5.48;100.00
60609;BME280;48221;53.528;9.884;2023-02-11T01:34:57;102711.94;;;5.50;100.00
60609;BME280;48221;53.528;9.884;2023-02-11T01:37:23;102719.56;;;5.48;100.00
60609;BME280;48221;53.528;9.884;2023-02-11T01:39:48;102720.16;;;5.44;100.00
60609;BME280;48221;53.528;9.884;2023-02-11T01:42:19;102709.78;;;5.44;100.00
60609;BME280;48221;53.528;9.884;2023-02-11T01:44:47;102715.88;;;5.45;100.00
60609;BME280;48221;53.528;9.884;2023-02-11T01:47:13;102711.59;;;5.45;100.00
60609;BME280;48221;53.528;9.884;2023-02-11T01:49:41;102708.09;;;5.45;100.00
60609;BME280;48221;53.528;9.884;2023-02-11T01:52:16;102702.03;;;5.44;100.00
60609;BME280;48221;53.528;9.884;2023-02-11T01:54:48;102703.81;;;5.45;100.00
60609;BME280;48221;53.528;9.884;2023-02-11T01:57:35;102698.66;;;5.45;100.00
60609;BME280;48221;53.528;9.884;2023-02-11T02:00:17;102698.50;;;5.44;100.00
60609;BME280;48221;53.528;9.884;2023-02-11T02:03:14;102691.50;;;5.43;100.00
60609;BME280;48221;53.528;9.884;2023-02-11T02:06:01;102681.16;;;5.43;100.00
60609;BME280;48221;53.528;9.884;2023-02-11T02:08:41;102689.72;;;5.42;100.00
60609;BME280;48221;53.528;9.884;2023-02-11T02:11:08;102674.56;;;5.46;100.00
60609;BME280;48221;53.528;9.884;2023-02-11T02:13:34;102679.72;;;5.46;100.00
60609;BME280;48221;53.528;9.884;2023-02-11T02:16:03;102678.94;;;5.47;100.00
60609;BME280;48221;53.528;9.884;2023-02-11T02:18:55;102672.28;;;5.51;100.00
60609;BME280;48221;53.528;9.884;2023-02-11T02:26:50;102668.81;;;5.50;100.00
60609;BME280;48221;53.528;9.884;2023-02-11T02:30:02;102659.34;;;5.51;100.00
60609;BME280;48221;53.528;9.884;2023-02-11T02:38:06;102652.59;;;5.53;100.00
60609;BME280;48221;53.528;9.884;2023-02-11T02:40:39;102640.66;;;5.55;100.00
60609;BME280;48221;53.528;9.884;2023-02-11T02:43:07;102633.03;;;5.56;100.00
60609;BME280;48221;53.528;9.884;2023-02-11T02:45:34;102638.22;;;5.56;100.00
60609;BME280;48221;53.528;9.884;2023-02-11T02:47:59;102636.63;;;5.59;100.00
60609;BME280;48221;53.528;9.884;2023-02-11T02:50:30;102637.53;;;5.59;100.00
60609;BME280;48221;53.528;9.884;2023-02-11T02:53:11;102634.16;;;5.60;100.00
60609;BME280;48221;53.528;9.884;2023-02-11T02:56:25;102642.94;;;5.62;100.00
60609;BME280;48221;53.528;9.884;2023-02-11T03:04:33;102630.56;;;5.58;100.00
60609;BME280;48221;53.528;9.884;2023-02-11T03:07:23;102622.91;;;5.60;100.00
60609;BME280;48221;53.528;9.884;2023-02-11T03:10:12;102623.09;;;5.63;100.00
60609;BME280;48221;53.528;9.884;2023-02-11T03:12:41;102634.81;;;5.57;100.00
60609;BME280;48221;53.528;9.884;2023-02-11T03:15:08;102631.34;;;5.57;100.00
60609;BME280;48221;53.528;9.884;2023-02-11T03:17:38;102642.81;;;5.61;100.00
60609;BME280;48221;53.528;9.884;2023-02-11T03:20:05;102636.63;;;5.59;100.00
60609;BME280;48221;53.528;9.884;2023-02-11T03:22:39;102642.81;;;5.61;100.00
60609;BME280;48221;53.528;9.884;2023-02-11T03:25:05;102638.66;;;5.63;100.00
60609;BME280;48221;53.528;9.884;2023-02-11T03:27:42;102637.75;;;5.62;100.00
60609;BME280;48221;53.528;9.884;2023-02-11T03:30:15;102626.72;;;5.65;100.00
60609;BME280;48221;53.528;9.884;2023-02-11T03:32:50;102626.72;;;5.65;100.00
60609;BME280;48221;53.528;9.884;2023-02-11T03:35:31;102617.34;;;5.67;100.00
60609;BME280;48221;53.528;9.884;2023-02-11T03:38:06;102616.59;;;5.68;100.00
60609;BME280;48221;53.528;9.884;2023-02-11T03:40:36;102603.88;;;5.71;100.00
60609;BME280;48221;53.528;9.884;2023-02-11T03:43:08;102605.78;;;5.73;100.00
60609;BME280;48221;53.528;9.884;2023-02-11T03:45:36;102598.13;;;5.75;100.00
60609;BME280;48221;53.528;9.884;2023-02-11T03:48:07;102607.78;;;5.77;100.00
60609;BME280;48221;53.528;9.884;2023-02-11T03:50:36;102603.88;;;5.82;100.00
60609;BME280;48221;53.528;9.884;2023-02-11T03:53:03;102603.19;;;5.85;100.00
60609;BME280;48221;53.528;9.884;2023-02-11T03:55:32;102600.59;;;5.85;100.00
60609;BME280;48221;53.528;9.884;2023-02-11T03:57:59;102598.50;;;5.91;100.00
60609;BME280;48221;53.528;9.884;2023-02-11T04:00:34;102602.19;;;5.95;100.00
60609;BME280;48221;53.528;9.884;2023-02-11T04:03:00;102595.44;;;5.97;100.00
60609;BME280;48221;53.528;9.884;2023-02-11T04:05:25;102597.34;;;5.99;100.00
60609;BME280;48221;53.528;9.884;2023-02-11T04:07:51;102596.66;;;6.02;100.00
60609;BME280;48221;53.528;9.884;2023-02-11T04:10:16;102603.78;;;6.04;100.00
60609;BME280;48221;53.528;9.884;2023-02-11T04:12:41;102604.78;;;6.06;100.00
60609;BME280;48221;53.528;9.884;2023-02-11T04:15:07;102601.41;;;6.07;100.00
60609;BME280;48221;53.528;9.884;2023-02-11T04:17:32;102605.91;;;6.10;100.00
60609;BME280;48221;53.528;9.884;2023-02-11T04:19:57;102605.09;;;6.11;100.00
60609;BME280;48221;53.528;9.884;2023-02-11T04:22:23;102603.50;;;6.13;100.00
60609;BME280;48221;53.528;9.884;2023-02-11T04:24:48;102605.44;;;6.16;100.00
60609;BME280;48221;53.528;9.884;2023-02-11T04:27:13;102600.28;;;6.16;100.00
60609;BME280;48221;53.528;9.884;2023-02-11T04:29:39;102593.41;;;6.16;100.00
60609;BME280;48221;53.528;9.884;2023-02-11T04:32:04;102604.19;;;6.22;100.00
60609;BME280;48221;53.528;9.884;2023-02-11T04:34:29;102609.38;;;6.22;100.00
60609;BME280;48221;53.528;9.884;2023-02-11T04:36:55;102613.88;;;6.25;100.00
60609;BME280;48221;53.528;9.884;2023-02-11T04:39:20;102617.38;;;6.25;100.00
60609;BME280;48221;53.528;9.884;2023-02-11T04:41:45;102604.53;;;6.27;100.00
60609;BME280;48221;53.528;9.884;2023-02-11T04:44:11;102612.41;;;6.28;100.00
60609;BME280;48221;53.528;9.884;2023-02-11T04:46:36;102616.91;;;6.31;100.00
60609;BME280;48221;53.528;9.884;2023-02-11T04:49:01;102611.84;;;6.32;100.00
60609;BME280;48221;53.528;9.884;2023-02-11T04:51:26;102618.81;;;6.33;100.00
60609;BME280;48221;53.528;9.884;2023-02-11T04:53:52;102619.03;;;6.36;100.00
60609;BME280;48221;53.528;9.884;2023-02-11T04:56:17;102613.84;;;6.36;100.00
60609;BME280;48221;53.528;9.884;2023-02-11T04:58:42;102606.19;;;6.38;100.00
60609;BME280;48221;53.528;9.884;2023-02-11T05:01:09;102611.13;;;6.35;100.00
60609;BME280;48221;53.528;9.884;2023-02-11T05:03:35;102602.72;;;6.37;100.00
60609;BME280;48221;53.528;9.884;2023-02-11T05:06:01;102603.72;;;6.39;100.00
60609;BME280;48221;53.528;9.884;2023-02-11T05:08:26;102611.59;;;6.41;100.00
60609;BME280;48221;53.528;9.884;2023-02-11T05:10:52;102622.97;;;6.43;100.00
60609;BME280;48221;53.528;9.884;2023-02-11T05:13:17;102622.19;;;6.44;100.00
60609;BME280;48221;53.528;9.884;2023-02-11T05:15:42;102615.41;;;6.46;100.00
60609;BME280;48221;53.528;9.884;2023-02-11T05:18:08;102613.59;;;6.45;100.00
60609;BME280;48221;53.528;9.884;2023-02-11T05:20:33;102626.66;;;6.47;100.00
60609;BME280;48221;53.528;9.884;2023-02-11T05:22:58;102623.28;;;6.48;100.00
60609;BME280;48221;53.528;9.884;2023-02-11T05:25:23;102607.97;;;6.51;100.00
60609;BME280;48221;53.528;9.884;2023-02-11T05:27:49;102614.03;;;6.51;100.00
60609;BME280;48221;53.528;9.884;2023-02-11T05:30:14;102614.94;;;6.52;100.00
60609;BME280;48221;53.528;9.884;2023-02-11T05:32:40;102612.25;;;6.50;100.00
60609;BME280;48221;53.528;9.884;2023-02-11T05:35:05;102607.06;;;6.50;100.00
60609;BME280;48221;53.528;9.884;2023-02-11T05:37:31;102607.06;;;6.50;100.00
60609;BME280;48221;53.528;9.884;2023-02-11T05:39:57;102609.75;;;6.52;100.00
60609;BME280;48221;53.528;9.884;2023-02-11T05:42:22;102607.28;;;6.53;100.00
60609;BME280;48221;53.528;9.884;2023-02-11T05:44:47;102605.47;;;6.52;100.00
60609;BME280;48221;53.528;9.884;2023-02-11T05:47:12;102600.28;;;6.52;100.00
60609;BME280;48221;53.528;9.884;2023-02-11T05:49:38;102590.72;;;6.51;100.00
60609;BME280;48221;53.528;9.884;2023-02-11T05:52:03;102585.28;;;6.48;100.00
60609;BME280;48221;53.528;9.884;2023-02-11T05:54:28;102587.88;;;6.48;100.00
60609;BME280;48221;53.528;9.884;2023-02-11T05:56:54;102588.81;;;6.49;100.00
60609;BME280;48221;53.528;9.884;2023-02-11T05:59:19;102586.31;;;6.50;100.00
60609;BME280;48221;53.528;9.884;2023-02-11T06:01:44;102590.72;;;6.51;100.00
60609;BME280;48221;53.528;9.884;2023-02-11T06:04:09;102584.72;;;6.52;100.00
60609;BME280;48221;53.528;9.884;2023-02-11T06:06:35;102585.28;;;6.48;100.00
60609;BME280;48221;53.528;9.884;2023-02-11T06:09:00;102592.28;;;6.49;100.00
60609;BME280;48221;53.528;9.884;2023-02-11T06:11:26;102584.63;;;6.51;100.00
60609;BME280;48221;53.528;9.884;2023-02-11T06:13:51;102583.81;;;6.52;100.00
60609;BME280;48221;53.528;9.884;2023-02-11T06:16:16;102578.63;;;6.52;100.00
60609;BME280;48221;53.528;9.884;2023-02-11T06:18:42;102577.75;;;6.51;100.00
60609;BME280;48221;53.528;9.884;2023-02-11T06:21:08;102562.19;;;6.51;100.00
60609;BME280;48221;53.528;9.884;2023-02-11T06:23:34;102560.16;;;6.47;100.00
60609;BME280;48221;53.528;9.884;2023-02-11T06:26:04;102554.84;;;6.46;100.00
60609;BME280;48221;53.528;9.884;2023-02-11T06:28:29;102560.16;;;6.47;100.00
60609;BME280;48221;53.528;9.884;2023-02-11T06:31:04;102559.25;;;6.47;100.00
60609;BME280;48221;53.528;9.884;2023-02-11T06:33:30;102572.22;;;6.47;100.00
60609;BME280;48221;53.528;9.884;2023-02-11T06:35:56;102584.53;;;6.49;100.00
60609;BME280;48221;53.528;9.884;2023-02-11T06:38:21;102599.28;;;6.50;100.00
60609;BME280;48221;53.528;9.884;2023-02-11T06:40:48;102610.56;;;6.51;100.00
60609;BME280;48221;53.528;9.884;2023-02-11T06:43:13;102613.16;;;6.51;100.00
60609;BME280;48221;53.528;9.884;2023-02-11T06:45:39;102611.56;;;6.53;100.00
60609;BME280;48221;53.528;9.884;2023-02-11T06:48:04;102610.56;;;6.51;100.00
60609;BME280;48221;53.528;9.884;2023-02-11T06:50:29;102623.03;;;6.56;100.00
60609;BME280;48221;53.528;9.884;2023-02-11T06:52:55;102609.16;;;6.56;100.00
60609;BME280;48221;53.528;9.884;2023-02-11T06:55:20;102613.47;;;6.55;100.00
60609;BME280;48221;53.528;9.884;2023-02-11T06:57:45;102620.56;;;6.58;100.00
60609;BME280;48221;53.528;9.884;2023-02-11T07:00:11;102629.34;;;6.60;100.00
60609;BME280;48221;53.528;9.884;2023-02-11T07:02:37;102623.84;;;6.55;100.00
60609;BME280;48221;53.528;9.884;2023-02-11T07:05:04;102625.63;;;6.56;100.00
60609;BME280;48221;53.528;9.884;2023-02-11T07:07:30;102628.22;;;6.56;100.00
60609;BME280;48221;53.528;9.884;2023-02-11T07:09:56;102628.22;;;6.56;100.00
60609;BME280;48221;53.528;9.884;2023-02-11T07:12:22;102633.41;;;6.56;100.00
60609;BME280;48221;53.528;9.884;2023-02-11T07:14:47;102631.03;;;6.59;100.00
60609;BME280;48221;53.528;9.884;2023-02-11T07:17:12;102630.25;;;6.60;100.00
60609;BME280;48221;53.528;9.884;2023-02-11T07:19:38;102641.41;;;6.59;100.00
60609;BME280;48221;53.528;9.884;2023-02-11T07:22:03;102650.09;;;6.60;100.00
60609;BME280;48221;53.528;9.884;2023-02-11T07:24:28;102656.19;;;6.60;100.00
60609;BME280;48221;53.528;9.884;2023-02-11T07:26:54;102648.53;;;6.62;100.00
60609;BME280;48221;53.528;9.884;2023-02-11T07:29:19;102654.81;;;6.65;100.00
60609;BME280;48221;53.528;9.884;2023-02-11T07:31:44;102645.25;;;6.64;100.00
60609;BME280;48221;53.528;9.884;2023-02-11T07:34:10;102647.16;;;6.67;100.00
60609;BME280;48221;53.528;9.884;2023-02-11T07:36:35;102650.75;;;6.69;100.00
60609;BME280;48221;53.528;9.884;2023-02-11T07:39:00;102655.81;;;6.67;100.00
60609;BME280;48221;53.528;9.884;2023-02-11T07:41:26;102665.41;;;6.68;100.00
60609;BME280;48221;53.528;9.884;2023-02-11T07:43:51;102668.81;;;6.67;100.00
60609;BME280;48221;53.528;9.884;2023-02-11T07:46:22;102668.00;;;6.68;100.00
60609;BME280;48221;53.528;9.884;2023-02-11T07:48:49;102666.56;;;6.72;100.00
60609;BME280;48221;53.528;9.884;2023-02-11T07:51:18;102667.66;;;6.76;100.00
60609;BME280;48221;53.528;9.884;2023-02-11T07:53:44;102664.16;;;6.75;100.00
60609;BME280;48221;53.528;9.884;2023-02-11T07:56:11;102683.31;;;6.77;100.00
60609;BME280;48221;53.528;9.884;2023-02-11T07:58:37;102673.94;;;6.79;100.00
60609;BME280;48221;53.528;9.884;2023-02-11T08:01:04;102687.81;;;6.80;100.00
60609;BME280;48221;53.528;9.884;2023-02-11T08:03:30;102682.84;;;6.83;100.00
60609;BME280;48221;53.528;9.884;2023-02-11T08:05:56;102701.25;;;6.86;100.00
60609;BME280;48221;53.528;9.884;2023-02-11T08:08:21;102699.44;;;6.85;100.00
60609;BME280;48221;53.528;9.884;2023-02-11T08:10:46;102698.75;;;6.87;100.00
60609;BME280;48221;53.528;9.884;2023-02-11T08:13:12;102703.25;;;6.90;100.00
60609;BME280;48221;53.528;9.884;2023-02-11T08:15:37;102695.78;;;6.94;100.00
60609;BME280;48221;53.528;9.884;2023-02-11T08:18:02;102688.69;;;6.92;100.00
60609;BME280;48221;53.528;9.884;2023-02-11T08:20:28;102690.72;;;6.96;100.00
60609;BME280;48221;53.528;9.884;2023-02-11T08:22:53;102691.38;;;6.93;100.00
60609;BME280;48221;53.528;9.884;2023-02-11T08:25:18;102694.13;;;6.95;100.00
60609;BME280;48221;53.528;9.884;2023-02-11T08:27:43;102696.91;;;6.98;100.00
60609;BME280;48221;53.528;9.884;2023-02-11T08:30:09;102694.44;;;6.99;100.00
60609;BME280;48221;53.528;9.884;2023-02-11T08:32:35;102698.72;;;6.99;100.00
60609;BME280;48221;53.528;9.884;2023-02-11T08:35:00;102710.91;;;7.00;100.00
60609;BME280;48221;53.528;9.884;2023-02-11T08:37:25;102708.19;;;6.98;100.00
60609;BME280;48221;53.528;9.884;2023-02-11T08:39:50;102723.88;;;7.00;100.00
60609;BME280;48221;53.528;9.884;2023-02-11T08:42:16;102734.47;;;7.03;100.00
60609;BME280;48221;53.528;9.884;2023-02-11T08:44:42;102724.19;;;7.05;100.00
60609;BME280;48221;53.528;9.884;2023-02-11T08:47:07;102724.28;;;7.06;100.00
60609;BME280;48221;53.528;9.884;2023-02-11T08:49:32;102736.59;;;7.09;100.00
60609;BME280;48221;53.528;9.884;2023-02-11T08:51:58;102730.72;;;7.11;100.00
60609;BME280;48221;53.528;9.884;2023-02-11T08:54:27;102740.91;;;7.08;100.00
60609;BME280;48221;53.528;9.884;2023-02-11T08:56:53;102741.09;;;7.11;100.00
60609;BME280;48221;53.528;9.884;2023-02-11T08:59:18;102735.31;;;7.15;100.00
60609;BME280;48221;53.528;9.884;2023-02-11T09:01:44;102733.41;;;7.13;100.00
60609;BME280;48221;53.528;9.884;2023-02-11T09:04:11;102744.91;;;7.16;100.00
60609;BME280;48221;53.528;9.884;2023-02-11T09:06:36;102745.34;;;7.22;100.00
60609;BME280;48221;53.528;9.884;2023-02-11T09:09:02;102753.25;;;7.24;100.00
60609;BME280;48221;53.528;9.884;2023-02-11T09:11:30;102749.75;;;7.23;100.00
60609;BME280;48221;53.528;9.884;2023-02-11T09:13:55;102749.84;;;7.25;100.00
60609;BME280;48221;53.528;9.884;2023-02-11T09:16:23;102755.03;;;7.25;100.00
60609;BME280;48221;53.528;9.884;2023-02-11T09:18:49;102743.75;;;7.24;100.00
60609;BME280;48221;53.528;9.884;2023-02-11T09:21:16;102746.56;;;7.27;100.00
60609;BME280;48221;53.528;9.884;2023-02-11T09:23:42;102751.56;;;7.24;100.00
60609;BME280;48221;53.528;9.884;2023-02-11T09:28:43;102758.66;;;7.27;100.00
60609;BME280;48221;53.528;9.884;2023-02-11T09:31:10;102758.53;;;7.25;100.00
60609;BME280;48221;53.528;9.884;2023-02-11T09:33:37;102755.16;;;7.26;100.00
60609;BME280;48221;53.528;9.884;2023-02-11T09:36:04;102757.19;;;7.30;100.00
60609;BME280;48221;53.528;9.884;2023-02-11T09:38:30;102749.41;;;7.30;100.00
60609;BME280;48221;53.528;9.884;2023-02-11T09:40:55;102759.00;;;7.31;100.00
60609;BME280;48221;53.528;9.884;2023-02-11T09:43:23;102758.28;;;7.34;100.00
60609;BME280;48221;53.528;9.884;2023-02-11T09:45:53;102767.19;;;7.38;100.00
60609;BME280;48221;53.528;9.884;2023-02-11T09:48:20;102770.13;;;7.42;100.00
60609;BME280;48221;53.528;9.884;2023-02-11T09:50:49;102755.22;;;7.40;100.00
60609;BME280;48221;53.528;9.884;2023-02-11T09:53:26;102753.84;;;7.45;100.00
60609;BME280;48221;53.528;9.884;2023-02-11T09:55:54;102757.53;;;7.48;100.00
60609;BME280;48221;53.528;9.884;2023-02-11T09:58:30;102760.47;;;7.53;100.00
60609;BME280;48221;53.528;9.884;2023-02-11T10:01:15;102763.28;;;7.56;100.00
60609;BME280;48221;53.528;9.884;2023-02-11T10:04:10;102763.84;;;7.52;100.00
60609;BME280;48221;53.528;9.884;2023-02-11T10:06:42;102781.78;;;7.60;100.00
60609;BME280;48221;53.528;9.884;2023-02-11T10:12:37;102781.31;;;7.66;100.00
60609;BME280;48221;53.528;9.884;2023-02-11T10:22:52;102798.50;;;7.64;100.00
60609;BME280;48221;53.528;9.884;2023-02-11T10:27:48;102801.59;;;7.72;100.00
60609;BME280;48221;53.528;9.884;2023-02-11T10:35:23;102789.91;;;7.65;100.00
60609;BME280;48221;53.528;9.884;2023-02-11T10:37:48;102805.91;;;7.71;100.00
60609;BME280;48221;53.528;9.884;2023-02-11T10:40:20;102808.13;;;7.78;100.00
60609;BME280;48221;53.528;9.884;2023-02-11T10:42:49;102811.28;;;7.74;100.00
60609;BME280;48221;53.528;9.884;2023-02-11T10:45:21;102814.94;;;7.76;100.00
60609;BME280;48221;53.528;9.884;2023-02-11T10:47:47;102808.34;;;7.81;100.00
60609;BME280;48221;53.528;9.884;2023-02-11T10:50:26;102815.34;;;7.82;100.00
60609;BME280;48221;53.528;9.884;2023-02-11T10:52:51;102810.44;;;7.87;100.00
60609;BME280;48221;53.528;9.884;2023-02-11T10:55:23;102810.34;;;7.85;100.00
60609;BME280;48221;53.528;9.884;2023-02-11T10:57:58;102803.94;;;7.80;100.00
60609;BME280;48221;53.528;9.884;2023-02-11T11:00:37;102801.81;;;7.75;100.00
60609;BME280;48221;53.528;9.884;2023-02-11T11:03:18;102783.16;;;7.80;100.00
60609;BME280;48221;53.528;9.884;2023-02-11T11:08:16;102794.97;;;7.88;100.00
60609;BME280;48221;53.528;9.884;2023-02-11T11:10:45;102789.19;;;7.93;100.00
60609;BME280;48221;53.528;9.884;2023-02-11T11:18:36;102807.53;;;7.82;100.00
60609;BME280;48221;53.528;9.884;2023-02-11T11:21:04;102794.34;;;7.79;100.00
60609;BME280;48221;53.528;9.884;2023-02-11T11:23:36;102793.34;;;7.77;100.00
60609;BME280;48221;53.528;9.884;2023-02-11T11:26:13;102793.34;;;7.77;100.00
60609;BME280;48221;53.528;9.884;2023-02-11T11:28:41;102791.63;;;7.78;100.00
60609;BME280;48221;53.528;9.884;2023-02-11T11:31:18;102792.09;;;7.72;100.00
60609;BME280;48221;53.528;9.884;2023-02-11T11:33:45;102798.53;;;7.77;100.00
60609;BME280;48221;53.528;9.884;2023-02-11T11:36:16;102797.03;;;7.81;100.00
60609;BME280;48221;53.528;9.884;2023-02-11T11:39:23;102794.84;;;7.87;100.00
60609;BME280;48221;53.528;9.884;2023-02-11T11:41:56;102797.34;;;7.85;100.00
60609;BME280;48221;53.528;9.884;2023-02-11T11:44:32;102791.34;;;7.86;100.00
60609;BME280;48221;53.528;9.884;2023-02-11T11:49:44;102806.78;;;7.97;100.00
60609;BME280;48221;53.528;9.884;2023-02-11T11:55:03;102802.19;;;8.06;100.00
60609;BME280;48221;53.528;9.884;2023-02-11T11:57:32;102805.44;;;8.15;100.00
60609;BME280;48221;53.528;9.884;2023-02-11T12:00:01;102809.81;;;8.16;100.00
60609;BME280;48221;53.528;9.884;2023-02-11T12:05:36;102811.34;;;8.12;100.00
60609;BME280;48221;53.528;9.884;2023-02-11T12:11:16;102819.22;;;8.14;100.00
60609;BME280;48221;53.528;9.884;2023-02-11T12:16:32;102821.94;;;8.15;100.00
60609;BME280;48221;53.528;9.884;2023-02-11T12:19:20;102823.72;;;8.16;100.00
60609;BME280;48221;53.528;9.884;2023-02-11T12:32:11;102827.13;;;8.15;100.00
60609;BME280;48221;53.528;9.884;2023-02-11T12:45:57;102842.22;;;8.21;100.00
60609;BME280;48221;53.528;9.884;2023-02-11T12:54:00;102840.84;;;8.13;100.00
60609;BME280;48221;53.528;9.884;2023-02-11T12:56:39;102839.59;;;8.08;100.00
60609;BME280;48221;53.528;9.884;2023-02-11T12:59:13;102839.59;;;8.08;100.00
60609;BME280;48221;53.528;9.884;2023-02-11T13:01:42;102830.91;;;8.07;100.00
60609;BME280;48221;53.528;9.884;2023-02-11T13:04:20;102836.34;;;8.10;100.00
60609;BME280;48221;53.528;9.884;2023-02-11T13:06:51;102838.22;;;8.13;100.00
60609;BME280;48221;53.528;9.884;2023-02-11T13:09:23;102839.44;;;8.18;100.00
60609;BME280;48221;53.528;9.884;2023-02-11T13:11:57;102836.63;;;8.15;100.00
60609;BME280;48221;53.528;9.884;2023-02-11T13:14:46;102827.03;;;8.14;100.00
60609;BME280;48221;53.528;9.884;2023-02-11T13:17:31;102832.34;;;8.15;100.00
60609;BME280;48221;53.528;9.884;2023-02-11T13:20:02;102832.84;;;8.23;100.00
60609;BME280;48221;53.528;9.884;2023-02-11T13:22:38;102821.66;;;8.24;100.00
60609;BME280;48221;53.528;9.884;2023-02-11T13:30:36;102839.44;;;8.31;100.00
60609;BME280;48221;53.528;9.884;2023-02-11T13:35:43;102846.66;;;8.22;100.00
60609;BME280;48221;53.528;9.884;2023-02-11T13:38:18;102845.06;;;8.24;100.00
60609;BME280;48221;53.528;9.884;2023-02-11T13:40:58;102839.84;;;8.24;100.00
60609;BME280;48221;53.528;9.884;2023-02-11T13:43:26;102846.66;;;8.22;100.00
60609;BME280;48221;53.528;9.884;2023-02-11T13:46:03;102846.53;;;8.20;100.00
60609;BME280;48221;53.528;9.884;2023-02-11T13:48:36;102837.16;;;8.23;100.00
60609;BME280;48221;53.528;9.884;2023-02-11T13:51:10;102842.94;;;8.18;100.00
60609;BME280;48221;53.528;9.884;2023-02-11T13:54:03;102838.63;;;8.19;100.00
60609;BME280;48221;53.528;9.884;2023-02-11T13:56:33;102837.03;;;8.21;100.00
60609;BME280;48221;53.528;9.884;2023-02-11T13:59:01;102840.44;;;8.20;100.00
60609;BME280;48221;53.528;9.884;2023-02-11T14:10:52;102846.06;;;8.26;100.00
60609;BME280;48221;53.528;9.884;2023-02-11T14:13:25;102841.66;;;8.25;100.00
60609;BME280;48221;53.528;9.884;2023-02-11T14:21:12;102859.88;;;8.25;100.00
60609;BME280;48221;53.528;9.884;2023-02-11T14:23:39;102865.63;;;8.21;100.00
60609;BME280;48221;53.528;9.884;2023-02-11T14:26:30;102869.63;;;8.16;100.00
60609;BME280;48221;53.528;9.884;2023-02-11T14:29:10;102868.94;;;8.18;100.00
60609;BME280;48221;53.528;9.884;2023-02-11T14:31:48;102880.34;;;8.20;100.00
60609;BME280;48221;53.528;9.884;2023-02-11T14:34:42;102878.63;;;8.21;100.00
60609;BME280;48221;53.528;9.884;2023-02-11T14:42:19;102883.06;;;8.22;100.00
60609;BME280;48221;53.528;9.884;2023-02-11T14:44:48;102897.66;;;8.20;100.00
60609;BME280;48221;53.528;9.884;2023-02-11T14:47:18;102902.19;;;8.23;100.00
60609;BME280;48221;53.528;9.884;2023-02-11T14:49:45;102908.28;;;8.23;100.00
60609;BME280;48221;53.528;9.884;2023-02-11T14:52:44;102917.53;;;8.19;100.00
60609;BME280;48221;53.528;9.884;2023-02-11T14:57:40;102929.56;;;8.17;100.00